createdAt,value
2022-12-13T00:01:13.207Z,100652.69
2022-12-13T00:06:16.591Z,100656.44
2022-12-13T00:11:18.537Z,100655.38
2022-12-13T00:16:22.714Z,100643.38
2022-12-13T00:21:27.106Z,100635.69
2022-12-13T00:26:29.899Z,100632.00
2022-12-13T00:36:55.419Z,100641.19
2022-12-13T00:41:57.306Z,100645.13
2022-12-13T00:46:59.739Z,100630.41
2022-12-13T00:52:03.022Z,100630.81
2022-12-13T00:57:05.012Z,100629.78
2022-12-13T01:02:06.821Z,100619.94
2022-12-13T01:07:09.975Z,100628.09
2022-12-13T01:12:11.907Z,100625.28
2022-12-13T01:17:13.815Z,100638.31
2022-12-13T01:22:17.044Z,100634.81
2022-12-13T01:27:18.980Z,100629.94
2022-12-13T01:32:20.762Z,100628.59
2022-12-13T01:37:26.009Z,100627.13
2022-12-13T01:42:28.137Z,100616.56
2022-12-13T01:47:31.948Z,100616.75
2022-12-13T01:52:35.157Z,100615.38
2022-12-13T01:57:40.762Z,100610.97
2022-12-13T02:02:45.699Z,100610.47
2022-12-13T02:07:48.899Z,100614.47
2022-12-13T02:12:50.732Z,100613.13
2022-12-13T02:17:58.327Z,100613.63
2022-12-13T02:23:12.979Z,100602.81
2022-12-13T02:28:31.312Z,100598.31
2022-12-13T02:33:40.251Z,100600.81
2022-12-13T02:38:46.134Z,100593.59
2022-12-13T02:43:49.284Z,100592.31
2022-12-13T02:48:53.066Z,100591.59
2022-12-13T02:53:54.925Z,100597.19
2022-12-13T02:58:56.780Z,100596.13
2022-12-13T03:04:05.603Z,100592.44
2022-12-13T03:09:17.993Z,100587.50
2022-12-13T03:14:20.075Z,100576.00
2022-12-13T03:19:23.197Z,100576.25
2022-12-13T03:24:24.979Z,100576.94
2022-12-13T03:29:26.816Z,100570.78
2022-12-13T03:34:44.910Z,100563.31
2022-12-13T03:39:47.994Z,100573.38
2022-12-13T03:44:49.865Z,100572.75
2022-12-13T03:49:54.362Z,100568.69
2022-12-13T03:54:56.483Z,100571.13
2022-12-13T03:59:58.385Z,100563.00
2022-12-13T04:05:01.667Z,100568.88
2022-12-13T04:10:03.751Z,100576.50
2022-12-13T04:15:25.784Z,100571.81
2022-12-13T04:20:29.013Z,100570.81
2022-12-13T04:25:30.998Z,100577.63
2022-12-13T04:30:32.985Z,100576.88
2022-12-13T04:35:36.098Z,100582.31
2022-12-13T04:40:37.980Z,100572.22
2022-12-13T04:45:39.792Z,100569.47
2022-12-13T04:50:42.986Z,100573.59
2022-12-13T04:55:44.812Z,100565.59
2022-12-13T05:00:46.640Z,100568.50
2022-12-13T05:05:49.765Z,100568.31
2022-12-13T05:10:51.589Z,100568.03
2022-12-13T05:15:56.640Z,100568.28
2022-12-13T05:21:03.081Z,100558.97
2022-12-13T05:26:05.051Z,100561.53
2022-12-13T05:31:23.048Z,100554.91
2022-12-13T05:36:27.121Z,100549.53
2022-12-13T05:41:29.526Z,100541.69
2022-12-13T05:46:31.613Z,100549.69
2022-12-13T05:51:36.623Z,100550.63
2022-12-13T05:56:38.379Z,100550.47
2022-12-13T06:01:43.607Z,100546.88
2022-12-13T06:06:47.259Z,100551.59
2022-12-13T06:12:00.903Z,100551.34
2022-12-13T06:17:03.325Z,100557.84
2022-12-13T06:22:06.502Z,100554.44
2022-12-13T06:27:08.252Z,100566.31
2022-12-13T06:32:10.479Z,100574.22
2022-12-13T06:37:13.822Z,100578.31
2022-12-13T06:42:21.767Z,100577.19
2022-12-13T06:47:31.937Z,100583.34
2022-12-13T06:52:35.726Z,100575.59
2022-12-13T06:57:37.508Z,100580.09
2022-12-13T07:02:42.791Z,100587.31
2022-12-13T07:07:46.101Z,100581.72
2022-12-13T07:12:47.983Z,100580.38
2022-12-13T07:17:50.367Z,100588.63
2022-12-13T07:22:58.858Z,100589.69
2022-12-13T07:28:02.898Z,100589.94
2022-12-13T07:33:05.238Z,100588.72
2022-12-13T07:38:08.459Z,100590.13
2022-12-13T07:43:11.836Z,100594.97
2022-12-13T07:48:13.617Z,100594.41
2022-12-13T07:53:17.010Z,100588.56
2022-12-13T07:58:18.902Z,100584.66
2022-12-13T08:03:25.559Z,100587.19
2022-12-13T08:08:30.973Z,100587.53
2022-12-13T08:13:33.833Z,100594.25
2022-12-13T08:18:35.999Z,100600.19
2022-12-13T08:23:39.086Z,100591.50
2022-12-13T08:28:40.806Z,100592.38
2022-12-13T08:33:45.533Z,100594.09
2022-12-13T08:38:48.648Z,100594.25
2022-12-13T08:43:50.787Z,100593.72
2022-12-13T08:48:53.231Z,100594.75
2022-12-13T08:54:10.668Z,100579.25
2022-12-13T08:59:13.225Z,100574.66
2022-12-13T09:04:18.026Z,100578.09
2022-12-13T09:09:34.963Z,100572.47
2022-12-13T09:14:45.053Z,100578.31
2022-12-13T09:19:47.281Z,100575.72
2022-12-13T09:24:50.465Z,100584.22
2022-12-13T09:29:52.199Z,100586.94
2022-12-13T09:34:54.024Z,100573.72
2022-12-13T09:39:57.250Z,100576.25
2022-12-13T09:45:03.236Z,100588.13
2022-12-13T09:50:06.446Z,100585.91
2022-12-13T09:55:18.959Z,100575.41
2022-12-13T10:00:21.817Z,100572.84
2022-12-13T10:05:34.287Z,100576.91
2022-12-13T10:10:42.215Z,100575.63
2022-12-13T10:15:47.427Z,100566.19
2022-12-13T10:20:49.171Z,100561.25
2022-12-13T10:25:55.022Z,100555.69
2022-12-13T10:31:05.604Z,100558.00
2022-12-13T10:36:09.614Z,100549.97
2022-12-13T10:41:27.566Z,100552.41
2022-12-13T10:46:31.115Z,100539.09
2022-12-13T10:51:40.265Z,100534.81
2022-12-13T10:56:45.632Z,100533.47
2022-12-13T11:01:47.403Z,100538.22
2022-12-13T11:06:49.180Z,100532.00
2022-12-13T11:11:59.059Z,100531.28
2022-12-13T11:17:06.492Z,100526.25
2022-12-13T11:22:08.762Z,100519.59
2022-12-13T11:27:24.408Z,100513.38
2022-12-13T11:32:33.338Z,100519.72
2022-12-13T11:37:39.177Z,100503.28
2022-12-13T11:42:44.040Z,100514.81
2022-12-13T11:47:49.983Z,100510.13
2022-12-13T11:53:01.671Z,100504.66
2022-12-13T11:58:07.299Z,100498.97
2022-12-13T12:03:17.747Z,100493.44
2022-12-13T12:08:32.415Z,100484.59
2022-12-13T12:13:50.800Z,100481.63
2022-12-13T12:19:01.518Z,100464.78
2022-12-13T12:24:15.932Z,100472.34
2022-12-13T12:29:50.649Z,100470.63
2022-12-13T12:34:55.937Z,100466.47
2022-12-13T12:40:15.374Z,100476.13
2022-12-13T12:45:55.212Z,100472.84
2022-12-13T12:50:50.865Z,100470.50
2022-12-13T12:56:00.826Z,100469.81
2022-12-13T13:01:13.238Z,100466.38
2022-12-13T13:06:16.692Z,100461.16
2022-12-13T13:11:24.362Z,100455.06
2022-12-13T13:16:34.295Z,100461.94
2022-12-13T13:21:46.344Z,100467.16
2022-12-13T13:26:49.693Z,100455.97
2022-12-13T13:32:01.135Z,100453.19
2022-12-13T13:37:27.247Z,100453.25
2022-12-13T13:42:29.381Z,100446.16
2022-12-13T13:47:38.970Z,100451.59
2022-12-13T13:52:45.987Z,100442.69
2022-12-13T13:58:29.959Z,100449.50
2022-12-13T14:03:58.032Z,100452.88
2022-12-13T14:09:21.854Z,100449.13
2022-12-13T14:14:51.536Z,100446.03
2022-12-13T14:20:23.544Z,100447.50
2022-12-13T14:25:42.273Z,100443.84
2022-12-13T14:30:48.312Z,100443.44
2022-12-13T14:36:01.710Z,100453.38
2022-12-13T14:41:03.682Z,100453.59
2022-12-13T14:46:06.475Z,100453.53
2022-12-13T14:51:29.661Z,100453.25
2022-12-13T14:56:31.410Z,100446.09
2022-12-13T15:01:34.157Z,100452.28
2022-12-13T15:06:37.243Z,100457.75
2022-12-13T15:11:39.134Z,100457.88
2022-12-13T15:16:41.065Z,100459.41
2022-12-13T15:21:58.618Z,100453.78
